Terminal Aerodrome Forecast
Issued by NWS

Current Version | Previous Version | Graphics & Text | Print | Product List | Glossary On
Versions: 1 2 3 4 5 6 7 8 9 10 11 12 13 14 15 16 17 18 19 20 21 22 23 24
405
FTUS41 KILN 210342 AAA
TAFLCK
TAF AMD
KLCK 210342Z 2104/2124 20005KT 4SM -DZ BR OVC012
     FM210700 20005KT 2SM -RA OVC006
     FM211400 20005KT 4SM BR VCSH OVC006
     FM211700 20010KT P6SM VCSH OVC006=

USA.gov is the U.S. government's official web portal to all federal, state and local government web resources and services.